Inland, South Dakota
Current Conditions -  °F | °C
As of 12:55 PM on Tuesday 21 Oct 2014 (Local Time) from KSPF Reporting Station
Clear Clear  
Wind Chill: 75°   Ceiling: Unl
Heat Index: 75°   Visibility: 10mi
Dew Point: 41°   Wind: 17mph
Humidity: 29%   Direction: 220°SW
Pressure: 29.8"   Gusts: 25mph
Location:  45.0528°N, 102.806°W
Report Text: KSPF 211855Z AUTO 22015G22KT 10SM CLR 24/05 A2980 RMK AO2
Loading
Personal Weather Stations






























Interactive Weather Map
Tropical Storm Tracking
New forecast layout! Learn more

10-Day Weather Forecast

Advertisements
Track Severe Weather on mobile